sensor_id;sensor_type;location;lat;lon;timestamp;P1;durP1;ratioP1;P2;durP2;ratioP2
29712;SDS011;16623;53.632;10.016;2024-02-23T00:01:15;1.70;;;0.60;;
29712;SDS011;16623;53.632;10.016;2024-02-23T00:03:40;0.85;;;0.70;;
29712;SDS011;16623;53.632;10.016;2024-02-23T00:06:06;0.75;;;0.60;;
29712;SDS011;16623;53.632;10.016;2024-02-23T00:08:32;3.75;;;0.60;;
29712;SDS011;16623;53.632;10.016;2024-02-23T00:10:58;1.23;;;0.80;;
29712;SDS011;16623;53.632;10.016;2024-02-23T00:13:23;2.58;;;0.60;;
29712;SDS011;16623;53.632;10.016;2024-02-23T00:15:49;1.58;;;0.70;;
29712;SDS011;16623;53.632;10.016;2024-02-23T00:18:16;4.53;;;1.25;;
29712;SDS011;16623;53.632;10.016;2024-02-23T00:20:41;2.70;;;0.93;;
29712;SDS011;16623;53.632;10.016;2024-02-23T00:23:07;2.60;;;0.95;;
29712;SDS011;16623;53.632;10.016;2024-02-23T00:25:32;1.48;;;0.80;;
29712;SDS011;16623;53.632;10.016;2024-02-23T00:27:58;0.73;;;0.70;;
29712;SDS011;16623;53.632;10.016;2024-02-23T00:30:23;5.45;;;0.95;;
29712;SDS011;16623;53.632;10.016;2024-02-23T00:32:51;0.75;;;0.75;;
29712;SDS011;16623;53.632;10.016;2024-02-23T00:35:16;4.18;;;0.80;;
29712;SDS011;16623;53.632;10.016;2024-02-23T00:37:42;0.65;;;0.63;;
29712;SDS011;16623;53.632;10.016;2024-02-23T00:40:07;1.77;;;0.77;;
29712;SDS011;16623;53.632;10.016;2024-02-23T00:42:34;1.95;;;0.80;;
29712;SDS011;16623;53.632;10.016;2024-02-23T00:45:00;1.35;;;0.70;;
29712;SDS011;16623;53.632;10.016;2024-02-23T00:47:26;1.17;;;1.02;;
29712;SDS011;16623;53.632;10.016;2024-02-23T00:49:52;3.08;;;0.90;;
29712;SDS011;16623;53.632;10.016;2024-02-23T00:52:17;0.52;;;0.52;;
29712;SDS011;16623;53.632;10.016;2024-02-23T00:54:43;0.73;;;0.50;;
29712;SDS011;16623;53.632;10.016;2024-02-23T00:57:08;0.55;;;0.55;;
29712;SDS011;16623;53.632;10.016;2024-02-23T00:59:34;0.90;;;0.57;;
29712;SDS011;16623;53.632;10.016;2024-02-23T01:01:59;1.80;;;0.68;;
29712;SDS011;16623;53.632;10.016;2024-02-23T01:04:25;1.20;;;0.57;;
29712;SDS011;16623;53.632;10.016;2024-02-23T01:06:50;0.95;;;0.50;;
29712;SDS011;16623;53.632;10.016;2024-02-23T01:09:16;0.52;;;0.50;;
29712;SDS011;16623;53.632;10.016;2024-02-23T01:11:45;0.40;;;0.40;;
29712;SDS011;16623;53.632;10.016;2024-02-23T01:14:14;0.85;;;0.77;;
29712;SDS011;16623;53.632;10.016;2024-02-23T01:16:40;0.40;;;0.40;;
29712;SDS011;16623;53.632;10.016;2024-02-23T01:19:05;0.60;;;0.60;;
29712;SDS011;16623;53.632;10.016;2024-02-23T01:21:31;0.50;;;0.50;;
29712;SDS011;16623;53.632;10.016;2024-02-23T01:23:56;0.60;;;0.50;;
29712;SDS011;16623;53.632;10.016;2024-02-23T01:26:22;1.08;;;0.57;;
29712;SDS011;16623;53.632;10.016;2024-02-23T01:28:48;0.50;;;0.50;;
29712;SDS011;16623;53.632;10.016;2024-02-23T01:31:14;0.55;;;0.43;;
29712;SDS011;16623;53.632;10.016;2024-02-23T01:33:39;2.25;;;0.50;;
29712;SDS011;16623;53.632;10.016;2024-02-23T01:36:05;0.82;;;0.50;;
29712;SDS011;16623;53.632;10.016;2024-02-23T01:38:31;1.52;;;0.50;;
29712;SDS011;16623;53.632;10.016;2024-02-23T01:40:58;1.73;;;0.50;;
29712;SDS011;16623;53.632;10.016;2024-02-23T01:43:24;1.75;;;0.50;;
29712;SDS011;16623;53.632;10.016;2024-02-23T01:45:50;1.60;;;0.70;;
29712;SDS011;16623;53.632;10.016;2024-02-23T01:48:16;0.90;;;0.68;;
29712;SDS011;16623;53.632;10.016;2024-02-23T01:50:43;0.43;;;0.43;;
29712;SDS011;16623;53.632;10.016;2024-02-23T01:53:09;0.90;;;0.57;;
29712;SDS011;16623;53.632;10.016;2024-02-23T01:55:37;3.03;;;0.70;;
29712;SDS011;16623;53.632;10.016;2024-02-23T01:58:05;0.40;;;0.40;;
29712;SDS011;16623;53.632;10.016;2024-02-23T02:00:31;0.38;;;0.38;;
29712;SDS011;16623;53.632;10.016;2024-02-23T02:02:57;0.55;;;0.35;;
29712;SDS011;16623;53.632;10.016;2024-02-23T02:05:24;0.65;;;0.35;;
29712;SDS011;16623;53.632;10.016;2024-02-23T02:07:49;2.20;;;0.40;;
29712;SDS011;16623;53.632;10.016;2024-02-23T02:10:19;0.30;;;0.30;;
29712;SDS011;16623;53.632;10.016;2024-02-23T02:12:45;0.40;;;0.40;;
29712;SDS011;16623;53.632;10.016;2024-02-23T02:15:11;0.40;;;0.40;;
29712;SDS011;16623;53.632;10.016;2024-02-23T02:17:37;1.75;;;0.40;;
29712;SDS011;16623;53.632;10.016;2024-02-23T02:20:02;0.40;;;0.40;;
29712;SDS011;16623;53.632;10.016;2024-02-23T02:22:34;0.45;;;0.40;;
29712;SDS011;16623;53.632;10.016;2024-02-23T02:25:00;1.35;;;0.40;;
29712;SDS011;16623;53.632;10.016;2024-02-23T02:27:25;0.30;;;0.30;;
29712;SDS011;16623;53.632;10.016;2024-02-23T02:29:51;0.30;;;0.30;;
29712;SDS011;16623;53.632;10.016;2024-02-23T02:32:17;0.45;;;0.40;;
29712;SDS011;16623;53.632;10.016;2024-02-23T02:34:43;0.30;;;0.30;;
29712;SDS011;16623;53.632;10.016;2024-02-23T02:37:08;0.55;;;0.55;;
29712;SDS011;16623;53.632;10.016;2024-02-23T02:39:34;0.77;;;0.40;;
29712;SDS011;16623;53.632;10.016;2024-02-23T02:42:00;2.60;;;0.40;;
29712;SDS011;16623;53.632;10.016;2024-02-23T02:44:27;0.68;;;0.50;;
29712;SDS011;16623;53.632;10.016;2024-02-23T02:46:55;0.68;;;0.30;;
29712;SDS011;16623;53.632;10.016;2024-02-23T02:49:24;0.40;;;0.40;;
29712;SDS011;16623;53.632;10.016;2024-02-23T02:51:50;0.80;;;0.30;;
29712;SDS011;16623;53.632;10.016;2024-02-23T02:54:15;0.50;;;0.50;;
29712;SDS011;16623;53.632;10.016;2024-02-23T02:56:42;0.40;;;0.40;;
29712;SDS011;16623;53.632;10.016;2024-02-23T02:59:08;3.42;;;0.52;;
29712;SDS011;16623;53.632;10.016;2024-02-23T03:01:35;0.45;;;0.45;;
29712;SDS011;16623;53.632;10.016;2024-02-23T03:04:00;0.50;;;0.40;;
29712;SDS011;16623;53.632;10.016;2024-02-23T03:06:26;0.40;;;0.40;;
29712;SDS011;16623;53.632;10.016;2024-02-23T03:08:51;2.25;;;0.43;;
29712;SDS011;16623;53.632;10.016;2024-02-23T03:11:17;0.50;;;0.40;;
29712;SDS011;16623;53.632;10.016;2024-02-23T03:13:42;5.82;;;1.13;;
29712;SDS011;16623;53.632;10.016;2024-02-23T03:16:14;2.67;;;0.75;;
29712;SDS011;16623;53.632;10.016;2024-02-23T03:18:41;0.57;;;0.50;;
29712;SDS011;16623;53.632;10.016;2024-02-23T03:21:06;1.35;;;0.60;;
29712;SDS011;16623;53.632;10.016;2024-02-23T03:23:31;0.98;;;0.88;;
29712;SDS011;16623;53.632;10.016;2024-02-23T03:25:57;1.80;;;0.80;;
29712;SDS011;16623;53.632;10.016;2024-02-23T03:28:22;1.48;;;0.57;;
29712;SDS011;16623;53.632;10.016;2024-02-23T03:30:48;0.50;;;0.40;;
29712;SDS011;16623;53.632;10.016;2024-02-23T03:33:14;0.95;;;0.50;;
29712;SDS011;16623;53.632;10.016;2024-02-23T03:35:39;1.20;;;0.60;;
29712;SDS011;16623;53.632;10.016;2024-02-23T03:38:05;1.15;;;0.60;;
29712;SDS011;16623;53.632;10.016;2024-02-23T03:40:30;1.55;;;0.40;;
29712;SDS011;16623;53.632;10.016;2024-02-23T03:42:56;1.33;;;0.70;;
29712;SDS011;16623;53.632;10.016;2024-02-23T03:45:21;0.40;;;0.40;;
29712;SDS011;16623;53.632;10.016;2024-02-23T03:47:48;0.40;;;0.40;;
29712;SDS011;16623;53.632;10.016;2024-02-23T03:50:13;1.42;;;0.50;;
29712;SDS011;16623;53.632;10.016;2024-02-23T03:52:39;0.60;;;0.60;;
29712;SDS011;16623;53.632;10.016;2024-02-23T03:55:04;0.88;;;0.70;;
29712;SDS011;16623;53.632;10.016;2024-02-23T03:57:30;0.98;;;0.60;;
29712;SDS011;16623;53.632;10.016;2024-02-23T03:59:56;0.65;;;0.60;;
29712;SDS011;16623;53.632;10.016;2024-02-23T04:02:22;0.65;;;0.55;;
29712;SDS011;16623;53.632;10.016;2024-02-23T04:04:48;2.22;;;0.77;;
29712;SDS011;16623;53.632;10.016;2024-02-23T04:07:14;1.90;;;0.60;;
29712;SDS011;16623;53.632;10.016;2024-02-23T04:09:40;3.20;;;0.80;;
29712;SDS011;16623;53.632;10.016;2024-02-23T04:12:05;3.83;;;0.73;;
29712;SDS011;16623;53.632;10.016;2024-02-23T04:14:32;0.70;;;0.70;;
29712;SDS011;16623;53.632;10.016;2024-02-23T04:17:01;1.55;;;0.88;;
29712;SDS011;16623;53.632;10.016;2024-02-23T04:19:29;0.82;;;0.65;;
29712;SDS011;16623;53.632;10.016;2024-02-23T04:21:55;2.20;;;1.00;;
29712;SDS011;16623;53.632;10.016;2024-02-23T04:24:20;2.15;;;0.82;;
29712;SDS011;16623;53.632;10.016;2024-02-23T04:26:46;4.35;;;0.93;;
29712;SDS011;16623;53.632;10.016;2024-02-23T04:29:12;3.10;;;0.73;;
29712;SDS011;16623;53.632;10.016;2024-02-23T04:31:38;3.17;;;0.68;;
29712;SDS011;16623;53.632;10.016;2024-02-23T04:34:03;0.70;;;0.60;;
29712;SDS011;16623;53.632;10.016;2024-02-23T04:36:29;1.00;;;0.68;;
29712;SDS011;16623;53.632;10.016;2024-02-23T04:38:54;2.92;;;0.85;;
29712;SDS011;16623;53.632;10.016;2024-02-23T04:41:20;0.65;;;0.65;;
29712;SDS011;16623;53.632;10.016;2024-02-23T04:43:47;3.10;;;0.90;;
29712;SDS011;16623;53.632;10.016;2024-02-23T04:46:13;0.80;;;0.75;;
29712;SDS011;16623;53.632;10.016;2024-02-23T04:48:38;2.05;;;0.70;;
29712;SDS011;16623;53.632;10.016;2024-02-23T04:51:04;2.55;;;0.98;;
29712;SDS011;16623;53.632;10.016;2024-02-23T04:53:31;3.45;;;1.00;;
29712;SDS011;16623;53.632;10.016;2024-02-23T04:55:56;3.88;;;0.80;;
29712;SDS011;16623;53.632;10.016;2024-02-23T04:58:22;3.85;;;1.13;;
29712;SDS011;16623;53.632;10.016;2024-02-23T05:00:47;1.00;;;0.73;;
29712;SDS011;16623;53.632;10.016;2024-02-23T05:03:13;2.33;;;1.10;;
29712;SDS011;16623;53.632;10.016;2024-02-23T05:05:40;1.50;;;0.98;;
29712;SDS011;16623;53.632;10.016;2024-02-23T05:08:06;1.80;;;0.80;;
29712;SDS011;16623;53.632;10.016;2024-02-23T05:10:32;2.28;;;1.30;;
29712;SDS011;16623;53.632;10.016;2024-02-23T05:12:57;1.45;;;0.75;;
29712;SDS011;16623;53.632;10.016;2024-02-23T05:15:23;2.72;;;1.02;;
29712;SDS011;16623;53.632;10.016;2024-02-23T05:17:48;2.85;;;1.30;;
29712;SDS011;16623;53.632;10.016;2024-02-23T05:20:14;2.33;;;1.20;;
29712;SDS011;16623;53.632;10.016;2024-02-23T05:22:39;3.60;;;1.48;;
29712;SDS011;16623;53.632;10.016;2024-02-23T05:25:05;5.53;;;1.42;;
29712;SDS011;16623;53.632;10.016;2024-02-23T05:27:31;3.58;;;1.80;;
29712;SDS011;16623;53.632;10.016;2024-02-23T05:29:57;5.82;;;1.40;;
29712;SDS011;16623;53.632;10.016;2024-02-23T05:32:23;4.15;;;1.75;;
29712;SDS011;16623;53.632;10.016;2024-02-23T05:34:49;3.60;;;1.30;;
29712;SDS011;16623;53.632;10.016;2024-02-23T05:37:17;3.08;;;1.40;;
29712;SDS011;16623;53.632;10.016;2024-02-23T05:39:43;2.65;;;1.88;;
29712;SDS011;16623;53.632;10.016;2024-02-23T05:42:11;3.45;;;1.30;;
29712;SDS011;16623;53.632;10.016;2024-02-23T05:44:38;5.68;;;1.02;;
29712;SDS011;16623;53.632;10.016;2024-02-23T05:47:04;3.72;;;1.25;;
29712;SDS011;16623;53.632;10.016;2024-02-23T05:49:30;7.70;;;1.85;;
29712;SDS011;16623;53.632;10.016;2024-02-23T05:51:55;2.83;;;1.30;;
29712;SDS011;16623;53.632;10.016;2024-02-23T05:54:21;13.63;;;2.00;;
29712;SDS011;16623;53.632;10.016;2024-02-23T05:56:46;3.75;;;1.60;;
29712;SDS011;16623;53.632;10.016;2024-02-23T05:59:12;3.97;;;1.42;;
29712;SDS011;16623;53.632;10.016;2024-02-23T06:01:38;2.05;;;1.27;;
29712;SDS011;16623;53.632;10.016;2024-02-23T06:04:03;2.40;;;1.48;;
29712;SDS011;16623;53.632;10.016;2024-02-23T06:06:29;3.35;;;1.35;;
29712;SDS011;16623;53.632;10.016;2024-02-23T06:08:54;0.93;;;0.85;;
29712;SDS011;16623;53.632;10.016;2024-02-23T06:11:20;3.25;;;1.40;;
29712;SDS011;16623;53.632;10.016;2024-02-23T06:13:45;2.20;;;0.98;;
29712;SDS011;16623;53.632;10.016;2024-02-23T06:16:11;2.83;;;1.35;;
29712;SDS011;16623;53.632;10.016;2024-02-23T06:18:38;6.28;;;1.33;;
29712;SDS011;16623;53.632;10.016;2024-02-23T06:21:16;4.70;;;1.02;;
29712;SDS011;16623;53.632;10.016;2024-02-23T06:23:43;7.47;;;1.27;;
29712;SDS011;16623;53.632;10.016;2024-02-23T06:26:09;9.13;;;2.20;;
29712;SDS011;16623;53.632;10.016;2024-02-23T06:28:34;3.10;;;1.17;;
29712;SDS011;16623;53.632;10.016;2024-02-23T06:31:02;5.88;;;1.50;;
29712;SDS011;16623;53.632;10.016;2024-02-23T06:33:28;4.57;;;1.27;;
29712;SDS011;16623;53.632;10.016;2024-02-23T06:35:55;5.93;;;1.65;;
29712;SDS011;16623;53.632;10.016;2024-02-23T06:38:21;1.45;;;1.35;;
29712;SDS011;16623;53.632;10.016;2024-02-23T06:40:46;2.20;;;1.05;;
29712;SDS011;16623;53.632;10.016;2024-02-23T06:43:12;1.77;;;1.20;;
29712;SDS011;16623;53.632;10.016;2024-02-23T06:45:38;6.10;;;1.40;;
29712;SDS011;16623;53.632;10.016;2024-02-23T06:48:03;4.55;;;1.50;;
29712;SDS011;16623;53.632;10.016;2024-02-23T06:50:29;2.58;;;1.63;;
29712;SDS011;16623;53.632;10.016;2024-02-23T06:52:55;7.30;;;1.60;;
29712;SDS011;16623;53.632;10.016;2024-02-23T06:55:20;4.70;;;1.33;;
29712;SDS011;16623;53.632;10.016;2024-02-23T06:57:46;1.27;;;1.00;;
29712;SDS011;16623;53.632;10.016;2024-02-23T07:00:12;2.17;;;1.52;;
29712;SDS011;16623;53.632;10.016;2024-02-23T07:02:38;4.85;;;1.52;;
29712;SDS011;16623;53.632;10.016;2024-02-23T07:05:03;1.52;;;1.13;;
29712;SDS011;16623;53.632;10.016;2024-02-23T07:07:29;3.53;;;1.58;;
29712;SDS011;16623;53.632;10.016;2024-02-23T07:09:56;2.03;;;0.98;;
29712;SDS011;16623;53.632;10.016;2024-02-23T07:12:21;5.35;;;1.70;;
29712;SDS011;16623;53.632;10.016;2024-02-23T07:14:47;4.97;;;1.77;;
29712;SDS011;16623;53.632;10.016;2024-02-23T07:17:16;5.50;;;1.50;;
29712;SDS011;16623;53.632;10.016;2024-02-23T07:19:42;8.95;;;1.95;;
29712;SDS011;16623;53.632;10.016;2024-02-23T07:22:07;4.68;;;1.50;;
29712;SDS011;16623;53.632;10.016;2024-02-23T07:24:33;3.72;;;1.50;;
29712;SDS011;16623;53.632;10.016;2024-02-23T07:26:58;1.90;;;1.25;;
29712;SDS011;16623;53.632;10.016;2024-02-23T07:29:24;5.88;;;1.55;;
29712;SDS011;16623;53.632;10.016;2024-02-23T07:31:50;7.38;;;1.52;;
29712;SDS011;16623;53.632;10.016;2024-02-23T07:34:15;3.40;;;1.65;;
29712;SDS011;16623;53.632;10.016;2024-02-23T07:36:40;5.82;;;1.52;;
29712;SDS011;16623;53.632;10.016;2024-02-23T07:39:08;12.10;;;2.05;;
29712;SDS011;16623;53.632;10.016;2024-02-23T07:41:33;6.82;;;1.90;;
29712;SDS011;16623;53.632;10.016;2024-02-23T07:43:59;4.53;;;1.88;;
29712;SDS011;16623;53.632;10.016;2024-02-23T07:46:24;7.47;;;1.45;;
29712;SDS011;16623;53.632;10.016;2024-02-23T07:48:50;4.72;;;1.70;;
29712;SDS011;16623;53.632;10.016;2024-02-23T07:51:15;3.45;;;1.90;;
29712;SDS011;16623;53.632;10.016;2024-02-23T07:53:41;6.53;;;1.70;;
29712;SDS011;16623;53.632;10.016;2024-02-23T07:56:10;5.00;;;1.98;;
29712;SDS011;16623;53.632;10.016;2024-02-23T07:58:36;5.65;;;2.17;;
29712;SDS011;16623;53.632;10.016;2024-02-23T08:01:01;4.63;;;2.22;;
29712;SDS011;16623;53.632;10.016;2024-02-23T08:03:27;8.43;;;2.03;;
29712;SDS011;16623;53.632;10.016;2024-02-23T08:05:52;3.72;;;1.60;;
29712;SDS011;16623;53.632;10.016;2024-02-23T08:08:18;5.60;;;2.42;;
29712;SDS011;16623;53.632;10.016;2024-02-23T08:10:44;9.88;;;1.92;;
29712;SDS011;16623;53.632;10.016;2024-02-23T08:13:09;2.30;;;1.33;;
29712;SDS011;16623;53.632;10.016;2024-02-23T08:15:36;6.57;;;1.92;;
29712;SDS011;16623;53.632;10.016;2024-02-23T08:18:02;2.38;;;1.52;;
29712;SDS011;16623;53.632;10.016;2024-02-23T08:20:27;6.13;;;1.80;;
29712;SDS011;16623;53.632;10.016;2024-02-23T08:22:53;5.20;;;1.30;;
29712;SDS011;16623;53.632;10.016;2024-02-23T08:25:18;8.85;;;1.85;;
29712;SDS011;16623;53.632;10.016;2024-02-23T08:27:44;5.57;;;1.65;;
29712;SDS011;16623;53.632;10.016;2024-02-23T08:30:09;8.80;;;1.80;;
29712;SDS011;16623;53.632;10.016;2024-02-23T08:32:38;5.15;;;2.00;;
29712;SDS011;16623;53.632;10.016;2024-02-23T08:35:04;5.72;;;1.50;;
29712;SDS011;16623;53.632;10.016;2024-02-23T08:37:30;3.42;;;1.23;;
29712;SDS011;16623;53.632;10.016;2024-02-23T08:39:56;8.27;;;1.40;;
29712;SDS011;16623;53.632;10.016;2024-02-23T08:42:21;3.72;;;1.88;;
29712;SDS011;16623;53.632;10.016;2024-02-23T08:44:47;7.03;;;1.80;;
29712;SDS011;16623;53.632;10.016;2024-02-23T08:47:13;3.42;;;1.58;;
29712;SDS011;16623;53.632;10.016;2024-02-23T08:49:38;2.40;;;1.30;;
29712;SDS011;16623;53.632;10.016;2024-02-23T08:52:04;3.58;;;1.10;;
29712;SDS011;16623;53.632;10.016;2024-02-23T08:54:30;8.88;;;2.60;;
29712;SDS011;16623;53.632;10.016;2024-02-23T08:56:55;6.03;;;2.40;;
29712;SDS011;16623;53.632;10.016;2024-02-23T08:59:21;3.85;;;1.45;;
29712;SDS011;16623;53.632;10.016;2024-02-23T09:01:46;5.22;;;1.90;;
29712;SDS011;16623;53.632;10.016;2024-02-23T09:04:13;5.28;;;2.00;;
29712;SDS011;16623;53.632;10.016;2024-02-23T09:06:38;3.72;;;1.50;;
29712;SDS011;16623;53.632;10.016;2024-02-23T09:09:04;11.73;;;1.70;;
29712;SDS011;16623;53.632;10.016;2024-02-23T09:11:29;5.40;;;1.77;;
29712;SDS011;16623;53.632;10.016;2024-02-23T09:13:55;3.85;;;1.90;;
29712;SDS011;16623;53.632;10.016;2024-02-23T09:16:20;4.60;;;1.80;;
29712;SDS011;16623;53.632;10.016;2024-02-23T09:18:49;6.22;;;1.40;;
29712;SDS011;16623;53.632;10.016;2024-02-23T09:21:15;3.85;;;1.33;;
29712;SDS011;16623;53.632;10.016;2024-02-23T09:23:40;2.13;;;1.23;;
29712;SDS011;16623;53.632;10.016;2024-02-23T09:26:09;5.82;;;1.27;;
29712;SDS011;16623;53.632;10.016;2024-02-23T09:28:38;5.85;;;1.40;;
29712;SDS011;16623;53.632;10.016;2024-02-23T09:31:06;2.85;;;1.33;;
29712;SDS011;16623;53.632;10.016;2024-02-23T09:33:31;5.25;;;1.48;;
29712;SDS011;16623;53.632;10.016;2024-02-23T09:35:57;10.68;;;1.70;;
29712;SDS011;16623;53.632;10.016;2024-02-23T09:38:23;3.78;;;1.20;;
29712;SDS011;16623;53.632;10.016;2024-02-23T09:40:52;8.02;;;1.83;;
29712;SDS011;16623;53.632;10.016;2024-02-23T09:43:18;5.20;;;1.38;;
29712;SDS011;16623;53.632;10.016;2024-02-23T09:45:47;3.40;;;1.23;;
29712;SDS011;16623;53.632;10.016;2024-02-23T09:48:16;6.30;;;1.58;;
29712;SDS011;16623;53.632;10.016;2024-02-23T09:50:44;5.97;;;1.33;;
29712;SDS011;16623;53.632;10.016;2024-02-23T09:53:12;2.28;;;1.40;;
29712;SDS011;16623;53.632;10.016;2024-02-23T09:55:38;6.97;;;1.58;;
29712;SDS011;16623;53.632;10.016;2024-02-23T09:58:04;5.28;;;1.05;;
29712;SDS011;16623;53.632;10.016;2024-02-23T10:00:31;6.82;;;1.08;;
29712;SDS011;16623;53.632;10.016;2024-02-23T10:02:59;1.52;;;1.15;;
29712;SDS011;16623;53.632;10.016;2024-02-23T10:05:29;14.73;;;2.03;;
29712;SDS011;16623;53.632;10.016;2024-02-23T10:07:57;8.30;;;1.30;;
29712;SDS011;16623;53.632;10.016;2024-02-23T10:10:29;2.50;;;1.42;;
29712;SDS011;16623;53.632;10.016;2024-02-23T10:12:57;3.85;;;1.52;;
29712;SDS011;16623;53.632;10.016;2024-02-23T10:15:23;10.25;;;1.45;;
29712;SDS011;16623;53.632;10.016;2024-02-23T10:17:49;10.55;;;2.05;;
29712;SDS011;16623;53.632;10.016;2024-02-23T10:20:14;4.95;;;1.35;;
29712;SDS011;16623;53.632;10.016;2024-02-23T10:22:40;7.78;;;1.65;;
29712;SDS011;16623;53.632;10.016;2024-02-23T10:25:06;4.85;;;1.67;;
29712;SDS011;16623;53.632;10.016;2024-02-23T10:27:32;7.40;;;1.40;;
29712;SDS011;16623;53.632;10.016;2024-02-23T10:29:57;4.85;;;1.52;;
29712;SDS011;16623;53.632;10.016;2024-02-23T10:32:23;6.00;;;1.42;;
29712;SDS011;16623;53.632;10.016;2024-02-23T10:34:52;5.13;;;1.83;;
29712;SDS011;16623;53.632;10.016;2024-02-23T10:37:21;7.30;;;1.33;;
29712;SDS011;16623;53.632;10.016;2024-02-23T10:39:48;8.35;;;1.60;;
29712;SDS011;16623;53.632;10.016;2024-02-23T10:42:18;6.03;;;2.13;;
29712;SDS011;16623;53.632;10.016;2024-02-23T10:44:49;7.65;;;1.90;;
29712;SDS011;16623;53.632;10.016;2024-02-23T10:47:15;3.97;;;1.17;;
29712;SDS011;16623;53.632;10.016;2024-02-23T10:49:41;8.52;;;1.45;;
29712;SDS011;16623;53.632;10.016;2024-02-23T10:52:10;4.60;;;1.25;;
29712;SDS011;16623;53.632;10.016;2024-02-23T10:54:39;9.73;;;1.98;;
29712;SDS011;16623;53.632;10.016;2024-02-23T10:57:06;10.77;;;1.83;;
29712;SDS011;16623;53.632;10.016;2024-02-23T10:59:32;4.60;;;1.30;;
29712;SDS011;16623;53.632;10.016;2024-02-23T11:01:58;4.47;;;2.00;;
29712;SDS011;16623;53.632;10.016;2024-02-23T11:04:25;7.45;;;1.25;;
29712;SDS011;16623;53.632;10.016;2024-02-23T11:06:55;4.50;;;1.50;;
29712;SDS011;16623;53.632;10.016;2024-02-23T11:09:28;7.35;;;1.10;;
29712;SDS011;16623;53.632;10.016;2024-02-23T11:11:57;1.67;;;1.05;;
29712;SDS011;16623;53.632;10.016;2024-02-23T11:14:36;4.93;;;1.23;;
29712;SDS011;16623;53.632;10.016;2024-02-23T11:17:02;5.75;;;1.50;;
29712;SDS011;16623;53.632;10.016;2024-02-23T11:19:35;4.75;;;1.35;;
29712;SDS011;16623;53.632;10.016;2024-02-23T11:22:03;5.03;;;0.88;;
29712;SDS011;16623;53.632;10.016;2024-02-23T11:24:29;11.35;;;1.00;;
29712;SDS011;16623;53.632;10.016;2024-02-23T11:26:56;10.63;;;1.60;;
29712;SDS011;16623;53.632;10.016;2024-02-23T11:29:31;4.85;;;1.25;;
29712;SDS011;16623;53.632;10.016;2024-02-23T11:31:58;7.07;;;1.13;;
29712;SDS011;16623;53.632;10.016;2024-02-23T11:34:26;2.90;;;0.77;;
29712;SDS011;16623;53.632;10.016;2024-02-23T11:36:52;7.07;;;1.30;;
29712;SDS011;16623;53.632;10.016;2024-02-23T11:39:19;8.20;;;1.05;;
29712;SDS011;16623;53.632;10.016;2024-02-23T11:41:47;8.02;;;1.63;;
29712;SDS011;16623;53.632;10.016;2024-02-23T11:44:16;7.57;;;1.52;;
29712;SDS011;16623;53.632;10.016;2024-02-23T11:46:43;5.50;;;1.27;;
29712;SDS011;16623;53.632;10.016;2024-02-23T11:49:10;8.13;;;1.48;;
29712;SDS011;16623;53.632;10.016;2024-02-23T11:51:35;14.65;;;1.35;;
29712;SDS011;16623;53.632;10.016;2024-02-23T11:54:01;5.18;;;1.88;;
29712;SDS011;16623;53.632;10.016;2024-02-23T11:56:29;2.22;;;0.90;;
29712;SDS011;16623;53.632;10.016;2024-02-23T11:58:55;2.58;;;1.10;;
29712;SDS011;16623;53.632;10.016;2024-02-23T12:01:21;4.10;;;0.75;;
29712;SDS011;16623;53.632;10.016;2024-02-23T12:03:46;9.68;;;1.10;;
29712;SDS011;16623;53.632;10.016;2024-02-23T12:06:13;2.88;;;1.40;;
29712;SDS011;16623;53.632;10.016;2024-02-23T12:08:40;1.58;;;0.80;;
29712;SDS011;16623;53.632;10.016;2024-02-23T12:11:06;6.47;;;1.33;;
29712;SDS011;16623;53.632;10.016;2024-02-23T12:13:36;7.70;;;1.50;;
29712;SDS011;16623;53.632;10.016;2024-02-23T12:16:02;1.75;;;1.63;;
29712;SDS011;16623;53.632;10.016;2024-02-23T12:18:32;3.15;;;1.10;;
29712;SDS011;16623;53.632;10.016;2024-02-23T12:21:03;4.55;;;1.00;;
29712;SDS011;16623;53.632;10.016;2024-02-23T12:23:38;7.57;;;1.33;;
29712;SDS011;16623;53.632;10.016;2024-02-23T12:26:07;5.07;;;1.20;;
29712;SDS011;16623;53.632;10.016;2024-02-23T12:28:33;5.90;;;0.90;;
29712;SDS011;16623;53.632;10.016;2024-02-23T12:31:02;6.25;;;1.98;;
29712;SDS011;16623;53.632;10.016;2024-02-23T12:33:32;2.30;;;0.90;;
29712;SDS011;16623;53.632;10.016;2024-02-23T12:36:00;1.02;;;0.60;;
29712;SDS011;16623;53.632;10.016;2024-02-23T12:38:26;3.22;;;0.77;;
29712;SDS011;16623;53.632;10.016;2024-02-23T12:40:52;4.88;;;1.08;;
29712;SDS011;16623;53.632;10.016;2024-02-23T12:43:18;4.03;;;1.17;;
29712;SDS011;16623;53.632;10.016;2024-02-23T12:45:46;1.00;;;0.80;;
29712;SDS011;16623;53.632;10.016;2024-02-23T12:48:14;1.25;;;0.73;;
29712;SDS011;16623;53.632;10.016;2024-02-23T12:50:40;2.28;;;0.70;;
29712;SDS011;16623;53.632;10.016;2024-02-23T12:53:07;7.50;;;1.58;;
29712;SDS011;16623;53.632;10.016;2024-02-23T12:55:33;3.45;;;1.15;;
29712;SDS011;16623;53.632;10.016;2024-02-23T12:58:01;6.40;;;1.10;;
29712;SDS011;16623;53.632;10.016;2024-02-23T13:00:27;5.13;;;1.23;;
29712;SDS011;16623;53.632;10.016;2024-02-23T13:02:53;1.45;;;0.77;;
29712;SDS011;16623;53.632;10.016;2024-02-23T13:05:19;2.83;;;0.82;;
29712;SDS011;16623;53.632;10.016;2024-02-23T13:07:45;4.15;;;1.25;;
29712;SDS011;16623;53.632;10.016;2024-02-23T13:10:12;2.90;;;1.05;;
29712;SDS011;16623;53.632;10.016;2024-02-23T13:12:38;5.10;;;1.42;;
29712;SDS011;16623;53.632;10.016;2024-02-23T13:15:03;3.35;;;0.90;;
29712;SDS011;16623;53.632;10.016;2024-02-23T13:17:31;3.33;;;1.08;;
29712;SDS011;16623;53.632;10.016;2024-02-23T13:19:57;2.08;;;0.80;;
29712;SDS011;16623;53.632;10.016;2024-02-23T13:22:22;6.07;;;1.52;;
29712;SDS011;16623;53.632;10.016;2024-02-23T13:24:48;1.70;;;0.90;;
29712;SDS011;16623;53.632;10.016;2024-02-23T13:27:13;3.17;;;0.90;;
29712;SDS011;16623;53.632;10.016;2024-02-23T13:29:39;3.75;;;0.88;;
29712;SDS011;16623;53.632;10.016;2024-02-23T13:32:05;2.22;;;0.98;;
29712;SDS011;16623;53.632;10.016;2024-02-23T13:34:31;2.63;;;0.93;;
29712;SDS011;16623;53.632;10.016;2024-02-23T13:36:56;2.30;;;0.90;;
29712;SDS011;16623;53.632;10.016;2024-02-23T13:39:21;4.53;;;1.20;;
29712;SDS011;16623;53.632;10.016;2024-02-23T13:41:47;2.53;;;0.98;;
29712;SDS011;16623;53.632;10.016;2024-02-23T13:44:12;2.63;;;1.05;;
29712;SDS011;16623;53.632;10.016;2024-02-23T13:46:38;3.40;;;0.82;;
29712;SDS011;16623;53.632;10.016;2024-02-23T13:49:05;3.47;;;1.10;;
29712;SDS011;16623;53.632;10.016;2024-02-23T13:51:32;3.22;;;0.57;;
29712;SDS011;16623;53.632;10.016;2024-02-23T13:53:58;7.05;;;1.08;;
29712;SDS011;16623;53.632;10.016;2024-02-23T13:56:24;4.60;;;0.93;;
29712;SDS011;16623;53.632;10.016;2024-02-23T13:58:49;2.22;;;1.15;;
29712;SDS011;16623;53.632;10.016;2024-02-23T14:01:15;6.72;;;1.17;;
29712;SDS011;16623;53.632;10.016;2024-02-23T14:03:40;5.00;;;1.00;;
29712;SDS011;16623;53.632;10.016;2024-02-23T14:06:06;3.85;;;1.52;;
29712;SDS011;16623;53.632;10.016;2024-02-23T14:08:32;3.13;;;1.17;;
29712;SDS011;16623;53.632;10.016;2024-02-23T14:11:02;1.92;;;1.08;;
29712;SDS011;16623;53.632;10.016;2024-02-23T14:13:28;4.18;;;0.98;;
29712;SDS011;16623;53.632;10.016;2024-02-23T14:15:54;3.50;;;1.13;;
29712;SDS011;16623;53.632;10.016;2024-02-23T14:18:19;3.70;;;1.00;;
29712;SDS011;16623;53.632;10.016;2024-02-23T14:20:45;6.80;;;2.08;;
29712;SDS011;16623;53.632;10.016;2024-02-23T14:23:10;1.00;;;0.75;;
29712;SDS011;16623;53.632;10.016;2024-02-23T14:25:36;1.92;;;1.08;;
29712;SDS011;16623;53.632;10.016;2024-02-23T14:28:02;2.70;;;0.98;;